Time;durP1;ratioP1;P1;durP2;ratioP2;P2;SDS_P1;SDS_P2;PMS_P1;PMS_P2;Temp;Humidity;BMP_temperature;BMP_pressure;BME280_temperature;BME280_humidity;BME280_pressure;Samples;Min_cycle;Max_cycle;Signal;HPM_P1;HPM_P2
2023/05/19 00:30:15;;;;;;;6.60;4.00;;;;;;;8.33;80.93;99574.57;437255;1246;107719;-41
2023/05/19 00:40:18;;;;;;;5.80;4.30;;;;;;;8.26;80.99;99571.93;437200;1246;98002;-41
2023/05/19 00:50:23;;;;;;;8.60;3.80;;;;;;;8.20;81.00;99571.12;437062;1251;108784;-41
2023/05/19 01:00:28;;;;;;;5.10;3.00;;;;;;;8.25;81.10;99563.00;437085;1247;97936;-41
2023/05/19 01:10:32;;;;;;;9.10;3.60;;;;;;;8.23;81.16;99560.84;437148;1251;110933;-41
2023/05/19 01:20:51;;;;;;;3.70;2.90;;;;;;;8.17;81.31;99556.02;437454;1240;108811;31
2023/05/19 01:30:59;;;;;;;7.30;3.50;;;;;;;8.13;81.43;99559.45;435260;1254;99221;-42
2023/05/19 01:41:02;;;;;;;4.90;3.30;;;;;;;8.05;81.74;99552.84;435418;1253;107771;-42
2023/05/19 01:51:06;;;;;;;5.90;3.00;;;;;;;8.03;81.95;99543.38;435232;1251;99218;-41
2023/05/19 02:01:10;;;;;;;7.30;3.10;;;;;;;7.90;82.30;99542.85;435349;1249;112036;-42
2023/05/19 02:11:18;;;;;;;3.50;2.70;;;;;;;7.95;82.82;99544.63;435371;1249;109228;-42
2023/05/19 02:21:22;;;;;;;3.20;2.60;;;;;;;8.00;82.76;99535.10;435201;1252;99272;-42
2023/05/19 02:31:26;;;;;;;5.70;2.20;;;;;;;8.05;83.08;99532.16;435371;1253;107133;-43
2023/05/19 02:51:34;;;;;;;4.90;2.80;;;;;;;8.07;83.21;99518.15;435502;1252;112760;-42
2023/05/19 03:01:39;;;;;;;6.40;2.60;;;;;;;8.12;83.41;99517.33;435227;1254;107731;-42
2023/05/19 03:11:43;;;;;;;4.00;2.80;;;;;;;8.10;83.26;99517.19;435352;1253;99323;-42
2023/05/19 03:21:47;;;;;;;5.70;2.90;;;;;;;8.04;83.49;99506.96;435139;1253;106835;-42
2023/05/19 03:31:51;;;;;;;7.80;4.50;;;;;;;8.07;84.08;99505.95;435198;1253;99243;-42
2023/05/19 03:52:02;;;;;;;8.60;4.30;;;;;;;8.21;84.48;99504.70;435321;1249;107822;-38
2023/05/19 04:02:06;;;;;;;4.60;3.80;;;;;;;8.26;84.80;99505.34;435123;1253;98015;-41
2023/05/19 04:12:15;;;;;;;4.90;3.20;;;;;;;8.44;85.10;99512.48;435210;1250;108262;-41
2023/05/19 04:22:22;;;;;;;7.90;4.00;;;;;;;8.64;85.08;99528.62;435250;1249;99260;-41
2023/05/19 04:32:25;;;;;;;5.40;3.80;;;;;;;8.81;84.88;99537.36;435361;1252;111658;-42
2023/05/19 04:42:29;;;;;;;8.80;4.50;;;;;;;8.90;85.10;99530.77;435431;1252;107145;-41
2023/05/19 04:52:33;;;;;;;15.80;4.90;;;;;;;9.06;85.14;99539.21;435280;1252;99324;-41
2023/05/19 05:02:37;;;;;;;5.60;3.90;;;;;;;9.11;85.21;99534.02;435298;1250;108122;-41
2023/05/19 05:12:46;;;;;;;8.20;4.20;;;;;;;9.21;85.51;99530.27;435325;1253;99231;-41
2023/05/19 05:22:51;;;;;;;7.60;3.90;;;;;;;9.23;85.92;99531.18;435607;1252;111385;-41
2023/05/19 05:32:55;;;;;;;4.60;3.20;;;;;;;9.36;86.11;99529.70;435237;1254;107752;-41
2023/05/19 05:42:59;;;;;;;3.90;3.10;;;;;;;9.48;86.21;99533.60;435309;1253;98012;-41
2023/05/19 06:13:15;;;;;;;7.60;3.40;;;;;;;9.73;86.47;99545.77;435277;1252;110850;-40
2023/05/19 06:23:18;;;;;;;8.30;4.30;;;;;;;10.02;86.28;99552.53;435310;1250;108319;-40
2023/05/19 06:33:23;;;;;;;7.80;4.70;;;;;;;10.06;86.37;99561.97;435350;1253;99768;-42
2023/05/19 06:43:29;;;;;;;5.40;4.30;;;;;;;10.07;86.17;99563.48;435247;1253;108761;-42
2023/05/19 07:03:37;;;;;;;12.00;4.10;;;;;;;10.32;86.02;99548.33;435255;1250;110808;-41
2023/05/19 07:13:41;;;;;;;8.30;4.00;;;;;;;10.38;86.06;99542.02;435231;1250;107760;-41
2023/05/19 07:23:45;;;;;;;10.00;5.60;;;;;;;10.47;85.87;99546.52;435317;1250;99369;-42
2023/05/19 07:33:48;;;;;;;8.40;4.90;;;;;;;10.47;85.54;99538.06;435437;1251;111848;-41
2023/05/19 07:43:52;;;;;;;9.10;4.90;;;;;;;10.68;85.50;99544.83;435225;1252;98813;-42
2023/05/19 07:53:57;;;;;;;11.20;5.70;;;;;;;10.86;85.25;99550.30;435402;1253;111596;-44
2023/05/19 08:04:01;;;;;;;9.20;5.40;;;;;;;10.95;84.85;99548.98;435384;1251;107904;-45
2023/05/19 08:14:05;;;;;;;8.20;5.40;;;;;;;11.22;84.70;99548.59;435445;1253;99211;-42
2023/05/19 08:24:09;;;;;;;11.10;4.80;;;;;;;11.27;84.42;99536.05;435381;1252;108218;-40
2023/05/19 08:34:12;;;;;;;7.90;4.20;;;;;;;11.37;83.77;99540.36;435785;1249;99228;-42
2023/05/19 08:44:16;;;;;;;8.00;4.90;;;;;;;11.32;83.51;99545.19;435375;1253;111625;-41
2023/05/19 08:54:29;;;;;;;11.80;5.40;;;;;;;11.49;83.47;99550.70;435264;1252;109300;-40
2023/05/19 09:04:33;;;;;;;6.90;4.50;;;;;;;11.65;83.11;99554.20;435226;1253;99230;-41
2023/05/19 09:14:41;;;;;;;9.90;4.30;;;;;;;11.64;82.65;99555.56;435434;1250;107110;-40
2023/05/19 09:24:46;;;;;;;8.00;5.00;;;;;;;11.73;82.76;99546.41;435314;1252;99333;-41
2023/05/19 10:05:07;;;;;;;7.80;5.20;;;;;;;11.74;81.85;99548.44;435367;1252;107829;-41
2023/05/19 10:15:17;;;;;;;9.70;5.20;;;;;;;11.77;82.00;99549.36;435358;1253;99253;-41
2023/05/19 10:25:24;;;;;;;10.40;6.90;;;;;;;11.93;82.22;99552.65;435483;1250;111406;-42
2023/05/19 10:35:49;;;;;;;7.00;4.70;;;;;;;12.03;81.77;99555.18;435280;1251;107144;-41
2023/05/19 10:45:54;;;;;;;14.70;7.80;;;;;;;11.87;81.65;99558.98;435153;1253;98814;-43
2023/05/19 10:56:02;;;;;;;10.00;7.00;;;;;;;11.80;81.77;99549.80;435378;1253;106938;-42
2023/05/19 11:06:24;;;;;;;9.20;6.00;;;;;;;11.94;81.58;99543.05;435262;1253;99225;-42
2023/05/19 11:36:47;;;;;;;12.80;7.00;;;;;;;12.08;81.36;99541.05;435447;1250;98008;-42
2023/05/19 11:46:50;;;;;;;11.60;7.60;;;;;;;12.09;81.35;99543.52;435279;1253;107603;-42
2023/05/19 11:56:54;;;;;;;11.40;8.90;;;;;;;12.14;81.38;99544.54;435245;1253;99227;-42
2023/05/19 12:06:58;;;;;;;12.90;8.50;;;;;;;12.22;81.42;99545.77;435295;1250;113126;-41
2023/05/19 12:17:09;;;;;;;10.30;8.80;;;;;;;12.48;81.36;99539.11;435263;1253;107558;-42
2023/05/19 12:27:22;;;;;;;9.40;8.40;;;;;;;12.74;81.17;99534.30;435387;1250;99209;-42
2023/05/19 12:37:28;;;;;;;11.90;9.80;;;;;;;12.80;80.89;99534.80;435471;1252;108555;-44
2023/05/19 12:47:34;;;;;;;14.50;8.70;;;;;;;12.56;80.68;99538.13;435428;1254;99359;-42
2023/05/19 12:57:40;;;;;;;14.70;10.50;;;;;;;12.71;80.86;99529.23;435519;1253;111326;-42
2023/05/19 13:07:53;;;;;;;13.50;9.60;;;;;;;12.76;80.84;99522.27;435422;1253;108856;-42
2023/05/19 13:17:57;;;;;;;11.50;9.10;;;;;;;12.59;80.54;99524.95;435414;1263;99310;-41
2023/05/19 13:28:04;;;;;;;14.80;9.50;;;;;;;12.65;80.83;99522.23;435258;1253;108385;-42
2023/05/19 13:38:09;;;;;;;13.60;10.70;;;;;;;12.85;80.78;99525.72;435332;1251;97989;-40
2023/05/19 13:48:14;;;;;;;11.50;9.30;;;;;;;12.83;80.59;99524.48;435518;1253;110558;-42
2023/05/19 13:58:18;;;;;;;13.70;10.90;;;;;;;12.79;80.56;99517.35;435447;1256;108480;-42
2023/05/19 14:08:22;;;;;;;10.70;9.60;;;;;;;12.80;80.91;99518.20;435575;1250;98909;-41
2023/05/19 14:18:26;;;;;;;15.30;12.40;;;;;;;12.77;80.87;99518.67;435627;1253;108107;-42
2023/05/19 14:28:29;;;;;;;16.50;11.20;;;;;;;12.62;80.82;99524.93;435239;1257;99454;-42
2023/05/19 14:38:37;;;;;;;11.00;9.70;;;;;;;12.70;81.12;99522.09;435284;1253;111682;-42
2023/05/19 14:48:40;;;;;;;13.00;10.80;;;;;;;12.72;81.08;99519.63;435398;1255;109292;-41
2023/05/19 14:58:44;;;;;;;16.60;10.80;;;;;;;12.62;81.01;99521.21;435310;1263;99279;-42
2023/05/19 15:08:48;;;;;;;15.30;12.30;;;;;;;12.55;81.01;99523.98;435298;1255;107525;-41
2023/05/19 15:18:52;;;;;;;16.90;13.30;;;;;;;12.44;81.26;99532.58;435290;1251;99276;-42
2023/05/19 15:28:56;;;;;;;12.30;9.90;;;;;;;12.43;81.20;99527.61;435347;1251;114235;-41
2023/05/19 15:38:59;;;;;;;16.90;11.10;;;;;;;12.51;81.26;99525.44;435115;1263;108762;-42
2023/05/19 15:49:03;;;;;;;16.70;12.20;;;;;;;12.49;81.28;99526.07;434849;1256;565953;-42
2023/05/19 15:59:07;;;;;;;18.10;14.20;;;;;;;12.33;81.18;99523.30;435457;1253;108290;-41
2023/05/19 16:09:11;;;;;;;15.60;12.40;;;;;;;12.15;81.24;99522.25;435254;1255;99041;-42
2023/05/19 16:19:15;;;;;;;19.10;13.40;;;;;;;12.07;81.46;99518.61;435461;1263;112040;-41
2023/05/19 16:29:19;;;;;;;16.10;12.20;;;;;;;12.10;81.71;99517.58;435457;1251;107498;-41
2023/05/19 16:39:23;;;;;;;24.40;15.70;;;;;;;12.12;81.84;99521.79;435370;1253;99237;-41
2023/05/19 16:49:27;;;;;;;24.50;16.70;;;;;;;12.07;81.94;99528.04;435365;1253;108864;-41
2023/05/19 16:59:31;;;;;;;24.50;13.50;;;;;;;11.99;81.88;99528.95;435554;1251;99253;-41
2023/05/19 17:09:34;;;;;;;23.90;15.10;;;;;;;11.92;82.03;99531.42;435424;1254;111319;-42
2023/05/19 17:19:38;;;;;;;22.10;12.80;;;;;;;11.89;82.24;99529.53;435030;1251;108080;-41
2023/05/19 17:29:42;;;;;;;18.00;14.40;;;;;;;11.81;82.35;99535.04;435367;1263;99944;-41
2023/05/19 17:39:45;;;;;;;21.60;14.80;;;;;;;11.79;82.51;99528.31;435335;1252;107944;-42
2023/05/19 17:59:55;;;;;;;18.70;15.70;;;;;;;11.66;82.79;99542.55;435344;1254;109226;-41
2023/05/19 18:20:03;;;;;;;24.80;16.80;;;;;;;11.54;83.45;99545.22;435205;1254;99333;-42
2023/05/19 18:30:07;;;;;;;21.10;14.10;;;;;;;11.51;83.55;99550.33;435421;1251;109573;-41
2023/05/19 18:40:10;;;;;;;17.50;14.90;;;;;;;11.57;83.50;99557.83;435298;1251;98015;-41
2023/05/19 18:50:15;;;;;;;23.50;15.00;;;;;;;11.54;83.60;99566.53;435266;1251;112170;-41
2023/05/19 19:10:23;;;;;;;17.60;15.20;;;;;;;11.60;83.81;99569.89;435249;1253;99555;-43
2023/05/19 19:20:27;;;;;;;15.00;12.30;;;;;;;11.67;83.94;99573.08;435317;1254;108617;-41
2023/05/19 19:30:34;;;;;;;16.20;12.90;;;;;;;11.63;83.94;99578.71;435378;1254;99204;-43
2023/05/19 19:40:38;;;;;;;18.30;12.60;;;;;;;11.51;84.06;99582.73;435420;1254;110197;-41
2023/05/19 19:50:42;;;;;;;16.10;12.70;;;;;;;11.47;84.16;99585.58;435285;1251;108389;-41
2023/05/19 20:00:45;;;;;;;12.70;10.80;;;;;;;11.44;84.35;99588.48;435344;1250;98802;-41
2023/05/19 20:10:50;;;;;;;16.00;13.00;;;;;;;11.49;84.48;99591.91;435172;1250;109538;-43
2023/05/19 20:20:57;;;;;;;20.20;14.60;;;;;;;11.43;84.89;99589.05;435317;1254;98599;-41
2023/05/19 20:31:01;;;;;;;21.00;15.40;;;;;;;11.39;84.98;99583.58;435396;1252;111194;-43
2023/05/19 20:41:05;;;;;;;23.40;14.10;;;;;;;11.35;85.20;99585.73;435361;1250;108617;-41
2023/05/19 20:51:09;;;;;;;19.40;14.50;;;;;;;11.34;85.34;99585.05;435298;1258;98583;-41
2023/05/19 21:01:12;;;;;;;23.60;15.20;;;;;;;11.34;85.58;99575.48;435187;1250;108337;-41
2023/05/19 21:11:16;;;;;;;27.30;16.40;;;;;;;11.33;85.71;99576.54;435344;1254;99405;-42
2023/05/19 21:21:20;;;;;;;27.30;18.20;;;;;;;11.35;85.78;99576.29;435420;1250;112080;-42
2023/05/19 21:31:24;;;;;;;30.70;16.90;;;;;;;11.39;85.82;99569.73;435349;1252;110870;-42
2023/05/19 22:11:40;;;;;;;32.70;20.70;;;;;;;11.41;86.06;99567.52;435356;1250;111721;-44
2023/05/19 22:21:48;;;;;;;29.60;20.00;;;;;;;11.45;86.05;99560.33;435293;1264;108552;-42
2023/05/19 22:31:56;;;;;;;33.70;20.60;;;;;;;11.41;86.02;99554.80;435391;1254;99199;-42
2023/05/19 22:42:01;;;;;;;29.60;20.50;;;;;;;11.36;86.28;99553.33;435313;1253;107569;-41
2023/05/19 22:52:06;;;;;;;32.40;21.20;;;;;;;11.39;86.26;99559.30;435114;1253;99310;-41
2023/05/19 23:02:10;;;;;;;29.60;18.60;;;;;;;11.40;86.18;99551.64;435472;1254;112426;-41
2023/05/19 23:12:15;;;;;;;25.10;17.60;;;;;;;11.36;86.11;99552.14;435373;1253;109305;-42
2023/05/19 23:22:19;;;;;;;24.10;17.10;;;;;;;11.34;86.18;99549.04;435351;1253;99356;-42
2023/05/19 23:32:23;;;;;;;23.60;16.60;;;;;;;11.30;86.23;99557.98;435318;1250;108263;-41
2023/05/19 23:42:26;;;;;;;21.50;15.80;;;;;;;11.23;86.55;99552.00;435376;1252;99215;-42
